Chicago, IL (60652)

1:20 PM CDT on March 31, 2015 (GMT -0500)
Evergreen Park | | Change Station
CLOSE
Current Station
Personal Weather Station
Location: Evergreen Park, IL
Elevation: 630 ft
Nearby Weather Stations

Elev 630 ft 41.73 °N, 87.71 °W | Updated 32 seconds ago

Mostly Cloudy
Mostly Cloudy
50.2 °F
Feels Like 50.2 °F
N
0.9
Wind Variable Wind from SSW
Gusts 2.5 mph

Today
High -- | Low -- °F
--% Chance of Precip.
Yesterday
High -- | Low -- °F
Precip. -- in
6:35 AM 7:14 PM
Waxing Gibbous, 88% visible
Pressure 29.96 in
Visibility 10.0 miles
Clouds Scattered Clouds 2900 ft
Mostly Cloudy 3600 ft
Dew Point 38 °F
Humidity 63%
Rainfall 0.00 in
Snow Depth Not available.
UV 4 out of 12
Pollen 7.40 out of 12
Air Quality Not available.
Flu Activity Not available.
METAR KMDW 311753Z 03005KT 10SM SCT029 BKN036 11/02 A2996 RMK AO2 SLP144 T01060022 10106 20050 51016

More Conditions Fewer Conditions

Pressure 29.96 in
Visibility 10.0 miles
Clouds Scattered Clouds 2900 ft
Mostly Cloudy 3600 ft
Dew Point 38 °F
Humidity 63%
Rainfall 0.00 in
Snow Depth Not available.
UV 4 out of 12
Pollen 7.40 out of 12
Air Quality Not available.
Flu Activity Not available.
METAR KMDW 311753Z 03005KT 10SM SCT029 BKN036 11/02 A2996 RMK AO2 SLP144 T01060022 10106 20050 51016

More Conditions Fewer Conditions

10-Day Weather Forecast

Almanac

Astronomy

Mar. 31, 2015 Rise Set
Actual Time
Civil Twilight
Nautical Twilight
Astronomical Twilight
Moon
Length of Visible Light
Length of Day
Tomorrow will be .
, % of the Moon is Illuminated

Today's Extremes

State Highs State Lows

Community

WunderPhotos

Upload Photos

1,809,786 photos uploaded!

WunderBlogs® & News

Nearby

Air Quality

  Air Quality AQ Index Pollutant
Not available.

Snow Depth

Station Depth Elevation

Earthquake Activity

City Distance Mag. Time & Date
Minimum magnitude displayed is 2.5.

Coastal Water Temperatures

Place Temperature

Stations

Nearby Weather Stations

Station Location Temp. Windchill Dew Point Humidity Wind Precip. Elev Updated Type